Etusivu
METAR-TAF:

METAR-TAF

Lentoasemat :

Port Angeles, Washington, Yhdysvallat

Leveyspiiri: 48-08-27N, Pituuspiiri: 123-24-39W, korkeus merenpinnasta: 4 m

Tämänhetkinen sää

Tämä raportti tehtiin 33 minuuttia sitten, kello 18.50 UTC
tyyntä
Lämpötila 8°C
Kosteus 93%
Ilmanpaine 1020 hPa
Näkyvyys: 16.1 km
Hajanaisia pilviä 4800 ft:n korkeudessa
Pilvistä 8000 ft:n korkeudessa

METAR: KNOW 121850Z AUTO 00000KT 10SM SCT048 OVC080 08/07 A3012 RMK AO2 T00840073

Aika: 11:23 (19:23 UTC)


TAF: puuttuu

Säähavainnot ja -ennusteet yli 4000 lentoasemalta (METAR- ja TAF-raportit).

Käytössä olevat sääasemat on merkitty karttaan keltaisilla ja punaisilla pisteillä.

Aseta hiiri pisteen päälle nähdäksesi sääaseman nimen.

Klikkaa sitten nähdäksesi säähavainnot ja -ennusteet.

Kartan vaihtaminen: klikkaa mustalla rastilla varustettuja vihreitä pisteitä, niin voit zoomata sisään; viivalla varustettua vihreää pistettä, niin voit zoomata ulos tai vihreitä nuolia, niin pääset viereisille kartoille.


METAR-TAF: